Time;durP1;ratioP1;P1;durP2;ratioP2;P2;SDS_P1;SDS_P2;PMS_P1;PMS_P2;Temp;Humidity;BMP_temperature;BMP_pressure;BME280_temperature;BME280_humidity;BME280_pressure;Samples;Min_cycle;Max_cycle;Signal;HPM_P1;HPM_P2
2023/04/14 00:00:39;;;;;;;4.20;1.00;;;6.50;99.90;;;;;;5034433;28;20044;-59
2023/04/14 00:03:06;;;;;;;9.60;1.55;;;6.50;99.90;;;;;;5047913;28;20443;-59
2023/04/14 00:05:34;;;;;;;7.32;1.15;;;6.50;99.90;;;;;;5047990;28;20463;-60
2023/04/14 00:08:01;;;;;;;4.68;1.05;;;6.50;99.90;;;;;;5047717;28;20061;-59
2023/04/14 00:10:27;;;;;;;4.30;1.23;;;6.50;99.90;;;;;;5048375;28;20400;-58
2023/04/14 00:12:55;;;;;;;6.10;1.50;;;6.50;99.90;;;;;;5047815;28;20495;-60
2023/04/14 00:15:21;;;;;;;3.42;1.20;;;6.60;99.90;;;;;;5030360;28;20083;-58
2023/04/14 00:17:48;;;;;;;4.07;1.10;;;6.70;99.90;;;;;;5047650;28;20040;-58
2023/04/14 00:20:15;;;;;;;5.75;1.05;;;6.70;99.90;;;;;;5048054;28;20080;-58
2023/04/14 00:22:42;;;;;;;6.25;1.15;;;6.70;99.90;;;;;;5047593;28;20095;-58
2023/04/14 00:25:09;;;;;;;3.55;1.05;;;6.70;99.90;;;;;;5047969;28;20729;-59
2023/04/14 00:27:35;;;;;;;5.03;1.17;;;6.70;99.90;;;;;;5047562;28;20522;-59
2023/04/14 00:30:02;;;;;;;5.25;0.90;;;6.70;99.90;;;;;;5048128;28;20045;-59
2023/04/14 00:32:29;;;;;;;3.15;0.90;;;6.70;99.90;;;;;;5047671;28;20127;-59
2023/04/14 00:34:58;;;;;;;4.25;1.30;;;6.70;99.90;;;;;;5047857;28;20110;-59
2023/04/14 00:37:25;;;;;;;8.93;1.38;;;6.70;99.90;;;;;;5047806;28;20080;-58
2023/04/14 00:39:52;;;;;;;13.55;1.48;;;6.70;99.90;;;;;;5030605;28;20084;-59
2023/04/14 00:42:19;;;;;;;9.85;1.52;;;6.70;99.90;;;;;;5048800;28;20223;-59
2023/04/14 00:44:47;;;;;;;5.32;1.10;;;6.70;99.90;;;;;;5048119;28;20483;-60
2023/04/14 00:47:13;;;;;;;4.00;1.10;;;6.70;99.90;;;;;;5047874;28;20106;-57
2023/04/14 00:49:40;;;;;;;2.65;0.90;;;6.70;99.90;;;;;;5047608;28;20037;-58
2023/04/14 00:52:07;;;;;;;8.55;1.10;;;6.70;99.90;;;;;;5047974;28;20083;-58
2023/04/14 00:54:34;;;;;;;8.02;1.13;;;6.70;99.90;;;;;;5029727;28;20507;-59
2023/04/14 00:57:01;;;;;;;4.90;0.90;;;6.70;99.90;;;;;;5063030;28;20053;-58
2023/04/14 00:59:28;;;;;;;7.07;1.33;;;6.70;99.90;;;;;;5026107;28;20045;-59
2023/04/14 01:01:55;;;;;;;13.32;1.85;;;6.70;99.90;;;;;;4693987;28;10000194;-60
2023/04/14 01:04:22;;;;;;;10.63;1.10;;;6.80;99.90;;;;;;5048294;28;20087;-59
2023/04/14 01:06:53;;;;;;;3.88;1.08;;;6.80;99.90;;;;;;5050635;28;20045;-59
2023/04/14 01:09:20;;;;;;;4.82;1.02;;;6.90;99.90;;;;;;5051099;28;20071;-59
2023/04/14 01:12:01;;;;;;;2.80;1.00;;;6.90;99.90;;;;;;5001446;28;20515;-59
2023/04/14 01:14:51;;;;;;;5.05;0.95;;;6.90;99.90;;;;;;5065558;28;20124;-59
2023/04/14 01:17:19;;;;;;;7.15;1.00;;;6.90;99.90;;;;;;5018102;28;20080;-59
2023/04/14 01:20:01;;;;;;;8.13;2.35;;;6.90;99.90;;;;;;5051098;28;20084;-61
2023/04/14 01:22:30;;;;;;;12.45;1.58;;;6.90;99.90;;;;;;5035246;28;20044;-59
2023/04/14 01:25:17;;;;;;;9.63;1.10;;;6.90;99.90;;;;;;5065841;28;20137;-59
2023/04/14 01:27:58;;;;;;;3.60;1.10;;;7.00;99.90;;;;;;5034723;28;20610;-60
2023/04/14 01:30:39;;;;;;;7.63;1.38;;;7.00;99.90;;;;;;5033655;28;20041;-59
2023/04/14 01:33:06;;;;;;;10.82;1.15;;;7.00;99.90;;;;;;5033270;28;20048;-60
2023/04/14 01:35:37;;;;;;;9.38;1.70;;;7.00;99.90;;;;;;5032765;28;20051;-58
2023/04/14 01:38:08;;;;;;;8.40;1.20;;;7.00;99.90;;;;;;5017457;28;20139;-59
2023/04/14 01:40:35;;;;;;;7.43;1.05;;;7.00;99.90;;;;;;5065323;28;20051;-58
2023/04/14 01:43:04;;;;;;;15.88;1.80;;;7.10;99.90;;;;;;5017073;28;20056;-59
2023/04/14 01:45:41;;;;;;;7.28;1.17;;;7.10;99.90;;;;;;5022501;28;20469;-58
2023/04/14 01:48:09;;;;;;;5.00;1.30;;;7.10;99.90;;;;;;5017910;28;20049;-58
2023/04/14 01:50:36;;;;;;;13.00;1.52;;;7.10;99.90;;;;;;5023519;28;20128;-59
2023/04/14 01:53:05;;;;;;;19.02;1.50;;;7.10;99.90;;;;;;5038219;28;20692;-58
2023/04/14 01:55:33;;;;;;;8.25;1.08;;;7.10;99.90;;;;;;5065234;28;20071;-59
2023/04/14 01:57:59;;;;;;;6.20;1.98;;;7.10;99.90;;;;;;5032840;28;20803;-58
2023/04/14 02:00:26;;;;;;;10.63;2.13;;;7.10;99.90;;;;;;5012386;28;20042;-59
2023/04/14 02:02:53;;;;;;;12.18;1.45;;;7.10;99.90;;;;;;5013221;28;20085;-58
2023/04/14 02:05:20;;;;;;;6.93;1.23;;;7.10;99.90;;;;;;5062177;28;20042;-56
2023/04/14 02:07:48;;;;;;;8.88;1.23;;;7.10;99.90;;;;;;5030166;28;20054;-58
2023/04/14 02:10:15;;;;;;;6.63;1.15;;;7.10;99.90;;;;;;5029117;28;20070;-59
2023/04/14 02:12:42;;;;;;;12.60;2.53;;;7.10;99.90;;;;;;5027646;28;20504;-59
2023/04/14 02:15:12;;;;;;;7.47;1.40;;;7.20;99.90;;;;;;5028943;28;20500;-59
2023/04/14 02:17:39;;;;;;;8.05;1.52;;;7.20;99.90;;;;;;5029319;28;20049;-62
2023/04/14 02:20:09;;;;;;;10.27;1.52;;;7.10;99.90;;;;;;5012699;28;20038;-58
2023/04/14 02:22:36;;;;;;;10.82;1.40;;;7.20;99.90;;;;;;5012485;28;20049;-59
2023/04/14 02:25:03;;;;;;;5.93;1.30;;;7.10;99.90;;;;;;5029938;28;20057;-59
2023/04/14 02:27:52;;;;;;;7.53;1.50;;;7.10;99.90;;;;;;5028345;28;20605;-59
2023/04/14 02:30:26;;;;;;;8.48;1.40;;;7.10;99.90;;;;;;5014990;28;20053;-59
2023/04/14 02:32:56;;;;;;;5.10;1.23;;;7.10;99.90;;;;;;5028493;28;20049;-59
2023/04/14 02:35:25;;;;;;;8.23;1.65;;;7.10;99.90;;;;;;5029640;28;20550;-59
2023/04/14 02:37:59;;;;;;;6.22;1.10;;;7.10;99.90;;;;;;5028097;28;20492;-59
2023/04/14 02:40:28;;;;;;;10.27;1.58;;;7.10;99.90;;;;;;5030459;28;20132;-59
2023/04/14 02:42:56;;;;;;;13.02;1.52;;;7.10;99.90;;;;;;5009034;28;20052;-58
2023/04/14 02:45:26;;;;;;;12.18;1.70;;;7.10;99.90;;;;;;5028394;28;20056;-59
2023/04/14 02:47:54;;;;;;;9.77;1.85;;;7.10;99.90;;;;;;5027185;28;20519;-60
2023/04/14 02:50:21;;;;;;;9.20;2.08;;;7.10;99.90;;;;;;5061142;28;20049;-60
2023/04/14 02:52:50;;;;;;;13.07;2.17;;;7.10;99.90;;;;;;5027953;28;20128;-60
2023/04/14 02:55:18;;;;;;;10.05;1.58;;;7.10;99.90;;;;;;5012154;28;20381;-61
2023/04/14 02:57:48;;;;;;;8.77;2.10;;;7.10;99.90;;;;;;5060676;28;20601;-60
2023/04/14 03:00:16;;;;;;;11.02;1.95;;;7.10;99.90;;;;;;5037827;28;20095;-61
2023/04/14 03:02:43;;;;;;;10.57;1.65;;;7.00;99.90;;;;;;5031438;28;20530;-60
2023/04/14 03:05:10;;;;;;;15.52;2.08;;;7.00;99.90;;;;;;5049839;28;20049;-58
2023/04/14 03:07:37;;;;;;;12.80;2.63;;;7.00;99.90;;;;;;5032219;28;20420;-61
2023/04/14 03:10:05;;;;;;;13.65;2.53;;;7.00;99.90;;;;;;5015119;28;20037;-61
2023/04/14 03:12:31;;;;;;;13.85;2.10;;;7.00;99.90;;;;;;5031233;28;20132;-60
2023/04/14 03:14:58;;;;;;;9.60;1.83;;;7.00;99.90;;;;;;5029340;28;20451;-59
2023/04/14 03:17:25;;;;;;;15.73;3.10;;;7.00;99.90;;;;;;5047505;28;20464;-60
2023/04/14 03:19:52;;;;;;;14.85;2.72;;;7.00;99.90;;;;;;5031133;28;20057;-59
2023/04/14 03:22:19;;;;;;;11.30;1.95;;;7.00;99.90;;;;;;5048825;28;20045;-59
2023/04/14 03:24:46;;;;;;;11.07;2.22;;;7.00;99.90;;;;;;5013863;28;20520;-58
2023/04/14 03:27:14;;;;;;;16.60;2.67;;;7.00;99.90;;;;;;5031403;28;20071;-58
2023/04/14 03:29:46;;;;;;;9.05;2.50;;;7.00;99.90;;;;;;5029840;28;20047;-59
2023/04/14 03:32:13;;;;;;;23.70;4.32;;;7.00;99.90;;;;;;5048502;28;20053;-59
2023/04/14 03:34:40;;;;;;;10.35;2.10;;;7.00;99.90;;;;;;5030239;28;20047;-58
2023/04/14 03:37:08;;;;;;;23.52;3.15;;;7.00;99.90;;;;;;5048625;28;20048;-59
2023/04/14 03:39:37;;;;;;;11.52;2.40;;;7.00;99.90;;;;;;5047734;28;20080;-59
2023/04/14 03:42:06;;;;;;;13.20;2.60;;;7.00;99.90;;;;;;5030909;28;20084;-59
2023/04/14 03:44:35;;;;;;;14.48;2.90;;;7.00;99.90;;;;;;5047476;28;20047;-58
2023/04/14 03:47:02;;;;;;;18.17;3.85;;;7.00;99.90;;;;;;5048217;28;20056;-59
2023/04/14 03:49:32;;;;;;;12.82;3.97;;;6.90;99.90;;;;;;5029789;28;20048;-58
2023/04/14 03:52:01;;;;;;;14.13;4.43;;;6.90;99.90;;;;;;5014937;28;20049;-59
2023/04/14 03:54:29;;;;;;;26.60;6.18;;;6.90;99.90;;;;;;5013660;28;20140;-59
2023/04/14 03:56:56;;;;;;;17.45;4.72;;;6.90;99.90;;;;;;5010836;28;20049;-60
2023/04/14 03:59:24;;;;;;;10.88;2.78;;;6.90;99.90;;;;;;5056479;28;20095;-58
2023/04/14 04:01:51;;;;;;;13.85;2.50;;;6.90;99.90;;;;;;5030867;28;20048;-57
2023/04/14 04:04:18;;;;;;;15.15;2.17;;;6.80;99.90;;;;;;5061105;28;20044;-60
2023/04/14 04:06:45;;;;;;;9.02;1.98;;;6.70;99.90;;;;;;5047173;28;20052;-58
2023/04/14 04:09:13;;;;;;;19.48;2.13;;;6.70;99.90;;;;;;5013414;28;20511;-59
2023/04/14 04:11:40;;;;;;;10.30;1.63;;;6.70;99.90;;;;;;5030271;28;20049;-59
2023/04/14 04:14:07;;;;;;;9.63;2.67;;;6.70;99.90;;;;;;5029932;28;20052;-58
2023/04/14 04:16:35;;;;;;;13.93;1.63;;;6.70;99.90;;;;;;5013546;28;20577;-59
2023/04/14 04:19:05;;;;;;;17.73;2.35;;;6.70;99.90;;;;;;5031589;28;20049;-59
2023/04/14 04:21:34;;;;;;;9.15;1.27;;;6.70;99.90;;;;;;5035699;28;20454;-59
2023/04/14 04:24:01;;;;;;;10.38;1.45;;;6.60;99.90;;;;;;5036189;28;20049;-59
2023/04/14 04:26:28;;;;;;;26.15;4.32;;;6.60;99.90;;;;;;5013380;28;20052;-58
2023/04/14 04:28:57;;;;;;;22.33;2.25;;;6.60;99.90;;;;;;5063097;28;20568;-59
2023/04/14 04:31:26;;;;;;;15.70;1.90;;;6.60;99.90;;;;;;5029725;28;20044;-59
2023/04/14 04:33:52;;;;;;;8.13;2.05;;;6.50;99.90;;;;;;5030403;28;20099;-58
2023/04/14 04:36:19;;;;;;;8.13;1.83;;;6.50;99.90;;;;;;5031195;28;20040;-59
2023/04/14 04:38:48;;;;;;;10.40;2.38;;;6.40;99.90;;;;;;5017594;28;20059;-60
2023/04/14 04:41:23;;;;;;;10.98;2.03;;;6.40;99.90;;;;;;5051485;28;20052;-59
2023/04/14 04:43:50;;;;;;;11.23;2.05;;;6.30;99.90;;;;;;5041362;28;20140;-59
2023/04/14 04:46:36;;;;;;;15.98;3.13;;;6.30;99.90;;;;;;5051438;28;20036;-58
2023/04/14 04:49:03;;;;;;;12.13;1.55;;;6.30;99.90;;;;;;5025851;28;20407;-58
2023/04/14 04:51:30;;;;;;;25.83;1.98;;;6.30;99.90;;;;;;5051199;28;20502;-58
2023/04/14 04:53:56;;;;;;;22.50;3.35;;;6.30;99.90;;;;;;5040106;28;20136;-59
2023/04/14 04:56:23;;;;;;;8.88;3.15;;;6.30;99.90;;;;;;5050750;28;20049;-58
2023/04/14 04:58:50;;;;;;;5.72;1.70;;;6.30;99.90;;;;;;5033570;28;20086;-58
2023/04/14 05:01:20;;;;;;;14.10;1.70;;;6.40;99.90;;;;;;5051252;28;20138;-58
2023/04/14 05:03:47;;;;;;;4.40;1.58;;;6.30;99.90;;;;;;5051153;28;20044;-59
2023/04/14 05:06:13;;;;;;;8.18;2.13;;;6.30;99.90;;;;;;5016992;28;20037;-55
2023/04/14 05:08:40;;;;;;;11.02;3.75;;;6.40;99.90;;;;;;5051035;28;20128;-59
2023/04/14 05:11:07;;;;;;;18.25;2.38;;;6.40;99.90;;;;;;5050815;28;20511;-58
2023/04/14 05:13:34;;;;;;;13.15;2.17;;;6.40;99.90;;;;;;5023467;28;20045;-59
2023/04/14 05:16:12;;;;;;;8.52;2.40;;;6.40;99.90;;;;;;5049818;28;20047;-59
2023/04/14 05:18:39;;;;;;;12.55;2.22;;;6.40;99.90;;;;;;5028068;28;20055;-58
2023/04/14 05:21:07;;;;;;;15.13;1.65;;;6.50;99.90;;;;;;5050702;28;20095;-59
2023/04/14 05:23:36;;;;;;;9.82;1.95;;;6.40;99.90;;;;;;5050902;28;20072;-59
2023/04/14 05:26:03;;;;;;;14.90;2.80;;;6.50;99.90;;;;;;5050795;28;20513;-60
2023/04/14 05:28:50;;;;;;;18.10;6.75;;;6.40;99.90;;;;;;5050729;28;20067;-58
2023/04/14 05:31:16;;;;;;;10.70;2.83;;;6.40;99.90;;;;;;5050598;28;20063;-58
2023/04/14 05:33:43;;;;;;;18.73;3.33;;;6.50;99.90;;;;;;5036302;28;20079;-60
2023/04/14 05:36:10;;;;;;;10.75;2.38;;;6.50;99.90;;;;;;5050600;28;20136;-60
2023/04/14 05:38:40;;;;;;;10.15;1.52;;;6.50;99.90;;;;;;5050414;28;20131;-64
2023/04/14 05:41:07;;;;;;;5.72;1.23;;;6.50;99.90;;;;;;5050404;28;20045;-60
2023/04/14 05:43:34;;;;;;;18.45;2.53;;;6.50;99.90;;;;;;5049672;28;20068;-59
2023/04/14 05:46:01;;;;;;;10.48;1.48;;;6.60;99.90;;;;;;5040008;28;20128;-60
2023/04/14 05:48:29;;;;;;;14.50;1.38;;;6.70;99.90;;;;;;5061808;28;20106;-60
2023/04/14 05:50:56;;;;;;;9.50;2.35;;;6.70;99.90;;;;;;5050264;28;20050;-61
2023/04/14 05:53:23;;;;;;;7.88;1.17;;;6.90;99.90;;;;;;5048902;28;20057;-61
2023/04/14 05:55:51;;;;;;;10.23;4.03;;;6.80;99.90;;;;;;5047189;28;20091;-58
2023/04/14 05:58:18;;;;;;;16.70;4.22;;;6.90;99.90;;;;;;5046312;28;20052;-59
2023/04/14 06:00:45;;;;;;;10.98;1.83;;;6.90;99.90;;;;;;5049000;28;20075;-59
2023/04/14 06:03:12;;;;;;;12.23;2.88;;;6.90;99.90;;;;;;5051294;28;20259;-59
2023/04/14 06:05:39;;;;;;;11.80;2.00;;;7.00;99.90;;;;;;5049440;28;20381;-59
2023/04/14 06:08:05;;;;;;;9.07;1.88;;;7.00;99.90;;;;;;5032292;28;20135;-60
2023/04/14 06:10:34;;;;;;;13.20;2.15;;;7.10;99.90;;;;;;5049644;28;20508;-59
2023/04/14 06:13:01;;;;;;;12.40;3.50;;;7.20;99.90;;;;;;5049819;28;20563;-59
2023/04/14 06:15:28;;;;;;;13.50;2.08;;;7.20;99.90;;;;;;5049555;28;20045;-59
2023/04/14 06:17:55;;;;;;;8.07;1.98;;;7.20;99.90;;;;;;5049662;28;20060;-61
2023/04/14 06:20:22;;;;;;;13.15;2.20;;;7.30;99.90;;;;;;5049220;28;20484;-59
2023/04/14 06:22:49;;;;;;;24.52;2.30;;;7.30;99.90;;;;;;5049408;28;20207;-59
2023/04/14 06:25:16;;;;;;;11.63;1.60;;;7.30;99.90;;;;;;5052543;28;20102;-59
2023/04/14 06:27:43;;;;;;;10.20;1.58;;;7.30;99.90;;;;;;5049846;28;20048;-59
2023/04/14 06:30:10;;;;;;;15.32;2.45;;;7.40;99.90;;;;;;5048629;28;20561;-60
2023/04/14 06:32:37;;;;;;;13.50;2.00;;;7.40;99.90;;;;;;5050008;28;20114;-60
2023/04/14 06:35:04;;;;;;;13.68;2.22;;;7.50;99.90;;;;;;5049078;28;20049;-60
2023/04/14 06:37:31;;;;;;;13.35;1.77;;;7.50;99.90;;;;;;5049544;28;20053;-58
2023/04/14 06:39:58;;;;;;;25.25;4.22;;;7.70;99.90;;;;;;5030917;28;20103;-60
2023/04/14 06:42:25;;;;;;;17.70;2.45;;;7.80;99.90;;;;;;5049654;28;20110;-60
2023/04/14 06:44:51;;;;;;;17.63;2.30;;;7.90;99.90;;;;;;5049098;28;20041;-60
2023/04/14 06:47:22;;;;;;;13.32;2.22;;;8.00;99.90;;;;;;5049394;28;20049;-60
2023/04/14 06:49:48;;;;;;;17.95;2.13;;;8.10;99.90;;;;;;5053246;28;20041;-61
2023/04/14 06:52:15;;;;;;;26.55;2.15;;;8.10;99.90;;;;;;5048950;28;20084;-60
2023/04/14 06:54:42;;;;;;;19.42;3.22;;;8.20;99.90;;;;;;5049071;28;20120;-60
2023/04/14 06:57:09;;;;;;;12.20;1.70;;;8.30;99.90;;;;;;5046472;28;20324;-60
2023/04/14 06:59:36;;;;;;;13.73;2.17;;;8.40;99.90;;;;;;5033253;28;20056;-61
2023/04/14 07:02:03;;;;;;;10.45;2.78;;;8.40;99.90;;;;;;5048815;28;20049;-61
2023/04/14 07:04:30;;;;;;;9.88;1.98;;;8.40;99.90;;;;;;5047815;28;20091;-60
2023/04/14 07:07:00;;;;;;;16.00;3.25;;;8.40;99.90;;;;;;5047476;28;20041;-61
2023/04/14 07:09:30;;;;;;;13.02;2.30;;;8.50;99.90;;;;;;5045824;28;20049;-60
2023/04/14 07:11:56;;;;;;;17.80;2.55;;;8.50;99.90;;;;;;5048050;28;20041;-61
2023/04/14 07:14:23;;;;;;;15.38;2.15;;;8.50;99.90;;;;;;5048767;28;20561;-61
2023/04/14 07:16:51;;;;;;;15.90;3.20;;;8.50;99.90;;;;;;5047626;28;20542;-60
2023/04/14 07:19:18;;;;;;;15.52;1.98;;;8.40;99.90;;;;;;5046310;28;20114;-61
2023/04/14 07:21:45;;;;;;;20.83;2.58;;;8.50;99.90;;;;;;5048294;28;20045;-60
2023/04/14 07:24:13;;;;;;;11.23;2.42;;;8.50;99.90;;;;;;5048278;28;20573;-61
2023/04/14 07:26:42;;;;;;;14.45;2.15;;;8.50;99.90;;;;;;5047780;28;20124;-57
2023/04/14 07:29:09;;;;;;;9.65;2.03;;;8.50;99.90;;;;;;5047892;28;20570;-59
2023/04/14 07:31:37;;;;;;;7.65;2.33;;;8.60;99.90;;;;;;5047725;28;20128;-58
2023/04/14 07:34:04;;;;;;;17.77;2.33;;;8.60;99.90;;;;;;5045865;28;20049;-60
2023/04/14 07:36:32;;;;;;;15.90;2.60;;;8.60;99.90;;;;;;5028030;28;20037;-60
2023/04/14 07:38:59;;;;;;;10.02;2.28;;;8.70;99.90;;;;;;5047730;28;20065;-60
2023/04/14 07:41:26;;;;;;;12.82;2.70;;;8.70;99.90;;;;;;5030374;28;20121;-59
2023/04/14 07:43:54;;;;;;;13.93;3.08;;;8.80;99.90;;;;;;5028776;28;20139;-59
2023/04/14 07:46:21;;;;;;;6.65;1.55;;;8.90;99.90;;;;;;5047529;28;20041;-61
2023/04/14 07:48:48;;;;;;;10.57;1.25;;;9.00;99.90;;;;;;5030369;28;20450;-59
2023/04/14 07:51:15;;;;;;;15.40;2.00;;;9.10;99.90;;;;;;5048070;28;20073;-59
2023/04/14 07:53:43;;;;;;;10.73;2.78;;;9.20;99.90;;;;;;5038319;28;20045;-60
2023/04/14 07:56:11;;;;;;;10.13;1.48;;;9.20;99.90;;;;;;5047704;28;20575;-59
2023/04/14 07:58:38;;;;;;;13.50;2.20;;;9.40;99.90;;;;;;5042565;28;20052;-56
2023/04/14 08:01:06;;;;;;;13.55;1.85;;;9.30;99.90;;;;;;5045999;28;20132;-58
2023/04/14 08:03:35;;;;;;;18.23;2.05;;;9.40;99.90;;;;;;5042400;28;20044;-58
2023/04/14 08:06:04;;;;;;;7.63;1.50;;;9.50;99.90;;;;;;5047308;28;20060;-58
2023/04/14 08:08:31;;;;;;;11.73;1.63;;;9.60;99.90;;;;;;5045372;28;20067;-57
2023/04/14 08:10:58;;;;;;;13.00;3.15;;;9.60;99.90;;;;;;5034768;28;20081;-57
2023/04/14 08:13:25;;;;;;;11.60;2.42;;;9.60;99.90;;;;;;5040066;28;20077;-57
2023/04/14 08:15:51;;;;;;;14.05;2.05;;;9.60;99.90;;;;;;5044427;28;20071;-57
2023/04/14 08:18:18;;;;;;;11.60;1.70;;;9.70;99.90;;;;;;5029885;28;20197;-57
2023/04/14 08:20:45;;;;;;;9.60;1.77;;;9.80;99.90;;;;;;5028382;28;20124;-58
2023/04/14 08:23:12;;;;;;;18.02;2.67;;;9.80;99.90;;;;;;5045270;28;20083;-56
2023/04/14 08:25:39;;;;;;;9.05;1.80;;;9.90;99.90;;;;;;5027081;28;20132;-58
2023/04/14 08:28:06;;;;;;;10.35;2.55;;;10.00;99.90;;;;;;5046889;28;20037;-57
2023/04/14 08:30:32;;;;;;;8.02;1.63;;;10.00;99.90;;;;;;5029820;28;20060;-58
2023/04/14 08:32:59;;;;;;;10.90;1.63;;;10.10;99.90;;;;;;5046591;28;20053;-58
2023/04/14 08:35:26;;;;;;;13.50;2.20;;;10.10;99.90;;;;;;5047122;28;20048;-59
2023/04/14 08:38:06;;;;;;;7.68;1.48;;;10.10;99.90;;;;;;5047424;28;20431;-59
2023/04/14 08:40:37;;;;;;;10.60;2.20;;;10.20;99.90;;;;;;5028788;28;20060;-59
2023/04/14 08:43:04;;;;;;;17.15;2.50;;;10.20;99.90;;;;;;5032337;28;20053;-59
2023/04/14 08:45:31;;;;;;;14.10;2.20;;;10.20;99.90;;;;;;5028941;28;20096;-59
2023/04/14 08:47:59;;;;;;;8.20;2.40;;;10.30;99.90;;;;;;5046882;28;20068;-58
2023/04/14 08:50:36;;;;;;;8.85;2.38;;;10.30;99.90;;;;;;5028330;28;20431;-57
2023/04/14 08:53:07;;;;;;;15.82;2.45;;;10.40;99.90;;;;;;5030233;28;20087;-59
2023/04/14 08:55:35;;;;;;;9.93;1.48;;;10.50;99.90;;;;;;5044771;28;20488;-58
2023/04/14 08:58:02;;;;;;;13.77;2.33;;;10.50;99.90;;;;;;5045475;28;20041;-58
2023/04/14 09:00:29;;;;;;;14.70;2.05;;;10.50;99.90;;;;;;5045153;28;20044;-57
2023/04/14 09:02:56;;;;;;;5.72;2.05;;;10.50;99.90;;;;;;5046305;28;20048;-56
2023/04/14 09:05:23;;;;;;;12.27;2.60;;;10.60;99.90;;;;;;5030389;28;20049;-58
2023/04/14 09:07:50;;;;;;;20.55;5.07;;;10.70;99.90;;;;;;5046871;28;20049;-60
2023/04/14 09:10:17;;;;;;;14.30;2.05;;;10.80;99.90;;;;;;5012767;28;20045;-59
2023/04/14 09:12:44;;;;;;;13.20;1.75;;;10.70;99.90;;;;;;5045716;28;20041;-59
2023/04/14 09:15:12;;;;;;;8.52;1.60;;;10.80;99.90;;;;;;5046288;28;20044;-59
2023/04/14 09:17:39;;;;;;;10.45;2.38;;;10.80;99.90;;;;;;5026238;28;20042;-59
2023/04/14 09:20:06;;;;;;;12.88;1.67;;;10.90;99.90;;;;;;5022365;28;20048;-59
2023/04/14 09:22:53;;;;;;;10.88;1.92;;;11.00;99.90;;;;;;5047319;28;20481;-58
2023/04/14 09:25:20;;;;;;;14.23;3.25;;;11.10;99.90;;;;;;5050403;28;20396;-59
2023/04/14 09:27:50;;;;;;;12.43;1.58;;;11.20;99.90;;;;;;5017076;28;20055;-59
2023/04/14 09:30:16;;;;;;;3.22;1.17;;;11.10;99.90;;;;;;5033006;28;20048;-59
2023/04/14 09:32:44;;;;;;;10.07;2.53;;;11.00;99.90;;;;;;5049807;28;20084;-58
2023/04/14 09:35:15;;;;;;;9.05;1.60;;;11.00;99.90;;;;;;5032779;28;20049;-58
2023/04/14 09:37:43;;;;;;;9.10;1.48;;;11.00;99.90;;;;;;5050474;28;20053;-58
2023/04/14 09:40:10;;;;;;;10.70;1.15;;;11.00;99.90;;;;;;5050717;28;20125;-59
2023/04/14 09:42:38;;;;;;;8.90;2.33;;;11.00;99.90;;;;;;5032193;28;20041;-59
2023/04/14 09:45:07;;;;;;;11.70;1.38;;;11.00;99.90;;;;;;5047541;28;20037;-58
2023/04/14 09:47:34;;;;;;;8.70;1.58;;;11.10;99.90;;;;;;5050633;28;20048;-58
2023/04/14 09:50:04;;;;;;;13.40;2.15;;;11.10;99.90;;;;;;5032595;28;20049;-60
2023/04/14 09:52:41;;;;;;;9.43;2.33;;;11.10;99.90;;;;;;5016364;28;20037;-58
2023/04/14 09:55:11;;;;;;;5.60;1.65;;;11.00;99.90;;;;;;5049592;28;20128;-61
2023/04/14 09:57:42;;;;;;;11.63;1.77;;;11.10;99.90;;;;;;5049827;28;20040;-57
2023/04/14 10:00:15;;;;;;;8.52;1.60;;;11.10;99.90;;;;;;5035958;28;20096;-58
2023/04/14 10:02:54;;;;;;;9.82;1.35;;;11.00;99.90;;;;;;5050226;28;20076;-59
2023/04/14 10:05:27;;;;;;;9.63;1.83;;;11.00;99.90;;;;;;5049528;28;20327;-58
2023/04/14 10:07:55;;;;;;;11.40;1.85;;;10.80;99.90;;;;;;5032847;28;20053;-58
2023/04/14 10:10:22;;;;;;;9.30;1.33;;;10.70;99.90;;;;;;5032165;28;20053;-58
2023/04/14 10:12:50;;;;;;;13.05;1.48;;;10.80;99.90;;;;;;5049269;28;20231;-62
2023/04/14 10:15:17;;;;;;;9.52;1.90;;;10.90;99.90;;;;;;5022596;28;20067;-61
2023/04/14 10:17:44;;;;;;;10.10;3.40;;;11.00;99.90;;;;;;5056694;28;20511;-58
2023/04/14 10:20:11;;;;;;;9.43;2.10;;;11.00;99.90;;;;;;5015652;28;20049;-58
2023/04/14 10:22:38;;;;;;;8.70;1.83;;;11.10;99.90;;;;;;5064255;28;20423;-58
2023/04/14 10:25:07;;;;;;;11.60;2.03;;;11.20;99.90;;;;;;5024645;28;20080;-57
2023/04/14 10:27:34;;;;;;;10.35;1.55;;;11.30;99.90;;;;;;5047762;28;20048;-59
2023/04/14 10:30:01;;;;;;;7.43;1.80;;;11.20;99.90;;;;;;5048860;28;20059;-58
2023/04/14 10:32:31;;;;;;;7.93;1.45;;;11.10;99.90;;;;;;5028808;28;20077;-60
2023/04/14 10:35:05;;;;;;;6.38;1.63;;;10.90;99.90;;;;;;5047448;28;20107;-58
2023/04/14 10:37:33;;;;;;;3.50;1.15;;;10.60;99.90;;;;;;5031844;28;20041;-58
2023/04/14 10:40:04;;;;;;;5.70;0.90;;;10.10;99.90;;;;;;5014720;28;20045;-59
2023/04/14 10:42:53;;;;;;;12.32;1.00;;;9.70;99.90;;;;;;5048967;28;20079;-58
2023/04/14 10:45:20;;;;;;;5.38;1.17;;;9.50;99.90;;;;;;5048817;28;20059;-59
2023/04/14 10:47:48;;;;;;;6.13;1.30;;;9.50;99.90;;;;;;5048704;28;20325;-58
2023/04/14 10:50:16;;;;;;;8.35;1.70;;;9.50;99.90;;;;;;5037429;28;20049;-58
2023/04/14 10:52:57;;;;;;;5.40;0.98;;;9.40;99.90;;;;;;5044988;28;20069;-59
2023/04/14 10:55:25;;;;;;;6.72;1.33;;;9.30;99.90;;;;;;5030172;28;20063;-59
2023/04/14 10:57:53;;;;;;;7.97;1.25;;;9.20;99.90;;;;;;5031109;28;20069;-58
2023/04/14 11:00:22;;;;;;;10.18;1.85;;;9.20;99.90;;;;;;5063348;28;20053;-60
2023/04/14 11:02:56;;;;;;;3.63;0.82;;;9.30;99.90;;;;;;5048644;28;20494;-56
2023/04/14 11:05:24;;;;;;;4.20;2.17;;;9.20;99.90;;;;;;5048544;28;20131;-59
2023/04/14 11:07:55;;;;;;;4.75;0.93;;;9.10;99.90;;;;;;5048716;28;20048;-59
2023/04/14 11:10:22;;;;;;;3.42;1.27;;;9.10;99.90;;;;;;5030782;28;20077;-59
2023/04/14 11:13:06;;;;;;;4.95;0.90;;;9.20;99.90;;;;;;5048117;28;20481;-58
2023/04/14 11:15:46;;;;;;;5.53;1.20;;;9.30;99.90;;;;;;5043122;28;20053;-58
2023/04/14 11:18:33;;;;;;;5.55;1.33;;;9.60;99.90;;;;;;5047744;28;20282;-59
2023/04/14 11:21:06;;;;;;;4.50;1.60;;;9.70;99.90;;;;;;5044726;28;20045;-58
2023/04/14 11:23:34;;;;;;;3.70;1.15;;;9.80;99.90;;;;;;5035691;28;20072;-59
2023/04/14 11:26:01;;;;;;;5.50;1.00;;;9.90;99.90;;;;;;5030117;28;20300;-58
2023/04/14 11:28:32;;;;;;;6.40;1.20;;;10.10;99.90;;;;;;5048255;28;20049;-58
2023/04/14 11:31:00;;;;;;;5.50;1.25;;;10.10;99.90;;;;;;5042561;28;20144;-57
2023/04/14 11:33:31;;;;;;;3.08;1.30;;;10.10;99.90;;;;;;5030389;28;20056;-58
2023/04/14 11:35:58;;;;;;;6.55;1.50;;;10.20;99.90;;;;;;5044612;28;20132;-59
2023/04/14 11:38:25;;;;;;;4.15;0.93;;;10.40;99.90;;;;;;5047704;28;20045;-57
2023/04/14 11:40:51;;;;;;;5.80;1.80;;;10.50;99.90;;;;;;5048162;28;20124;-58
2023/04/14 11:43:19;;;;;;;3.53;1.10;;;10.50;99.90;;;;;;5047285;28;20104;-57
2023/04/14 11:45:48;;;;;;;7.95;1.67;;;10.50;99.90;;;;;;5047304;28;20144;-57
2023/04/14 11:48:16;;;;;;;9.57;1.10;;;10.60;99.90;;;;;;5030626;28;20052;-58
2023/04/14 11:50:44;;;;;;;3.90;1.08;;;10.70;99.90;;;;;;5047775;28;20044;-58
2023/04/14 11:53:13;;;;;;;3.45;1.42;;;10.80;99.90;;;;;;5048299;28;20083;-57
2023/04/14 11:55:41;;;;;;;3.33;1.80;;;10.80;99.90;;;;;;5029553;28;20081;-56
2023/04/14 11:58:09;;;;;;;4.72;1.60;;;10.80;99.90;;;;;;5030603;28;20405;-58
2023/04/14 12:00:36;;;;;;;7.60;1.58;;;10.80;99.90;;;;;;4696683;28;10000658;-59
2023/04/14 12:03:03;;;;;;;3.30;0.98;;;11.00;99.90;;;;;;5007431;28;20049;-59
2023/04/14 12:05:31;;;;;;;6.28;1.25;;;11.10;99.90;;;;;;5036915;28;20052;-56
2023/04/14 12:08:03;;;;;;;4.28;0.80;;;11.10;99.90;;;;;;5025886;28;20049;-58
2023/04/14 12:10:31;;;;;;;2.17;0.80;;;11.10;99.90;;;;;;5044743;28;20436;-58
2023/04/14 12:13:02;;;;;;;2.53;0.70;;;10.90;99.90;;;;;;5040610;28;20539;-58
2023/04/14 12:15:30;;;;;;;3.75;0.52;;;11.00;99.90;;;;;;5027356;28;20400;-60
2023/04/14 12:17:57;;;;;;;0.60;0.40;;;11.10;99.90;;;;;;5060350;28;20485;-56
2023/04/14 12:20:29;;;;;;;8.18;1.27;;;10.90;99.90;;;;;;5045402;28;20053;-58
2023/04/14 12:23:02;;;;;;;2.85;0.45;;;11.10;99.90;;;;;;5044605;28;20102;-60
2023/04/14 12:25:32;;;;;;;1.30;0.50;;;11.20;99.90;;;;;;5035665;28;20132;-58
2023/04/14 12:28:01;;;;;;;4.85;0.45;;;11.20;99.90;;;;;;5044810;28;20090;-59
2023/04/14 12:30:28;;;;;;;0.82;0.50;;;11.20;99.90;;;;;;5044795;28;20054;-58
2023/04/14 12:32:55;;;;;;;2.72;0.55;;;11.10;99.90;;;;;;5044461;28;20086;-60
2023/04/14 12:35:22;;;;;;;3.85;0.57;;;11.10;99.90;;;;;;5034198;28;21076;-57
2023/04/14 12:37:50;;;;;;;1.27;0.32;;;11.10;99.90;;;;;;5010185;28;20041;-58
2023/04/14 12:40:17;;;;;;;2.00;0.80;;;11.20;99.90;;;;;;5044795;28;20049;-57
2023/04/14 12:42:48;;;;;;;1.60;0.80;;;11.40;99.90;;;;;;5026285;28;20047;-55
2023/04/14 12:45:15;;;;;;;1.95;0.63;;;11.40;99.90;;;;;;5043885;28;20160;-57
2023/04/14 12:47:52;;;;;;;3.63;0.60;;;11.50;99.90;;;;;;5044947;28;20051;-60
2023/04/14 12:50:29;;;;;;;1.33;0.47;;;11.50;99.90;;;;;;5044806;28;20081;-59
2023/04/14 12:52:56;;;;;;;1.60;0.60;;;11.60;99.90;;;;;;5046239;28;20320;-58
2023/04/14 12:55:24;;;;;;;4.38;2.33;;;11.60;99.90;;;;;;5044260;28;20037;-58